createdAt,value
2022-12-03T00:00:46.111Z,67.32
2022-12-03T00:03:13.186Z,67.44
2022-12-03T00:05:48.348Z,67.42
2022-12-03T00:08:16.016Z,68.59
2022-12-03T00:10:43.099Z,68.44
2022-12-03T00:13:10.116Z,67.50
2022-12-03T00:15:37.122Z,67.50
2022-12-03T00:18:04.212Z,67.03
2022-12-03T00:20:31.159Z,67.50
2022-12-03T00:22:58.106Z,68.23
2022-12-03T00:25:25.029Z,68.17
2022-12-03T00:27:51.905Z,68.08
2022-12-03T00:30:19.036Z,68.67
2022-12-03T00:32:45.946Z,67.35
2022-12-03T00:35:13.028Z,68.31
2022-12-03T00:37:39.996Z,67.58
2022-12-03T00:40:07.552Z,69.33
2022-12-03T00:42:34.478Z,69.28
2022-12-03T00:45:01.439Z,69.20
2022-12-03T00:47:30.366Z,68.61
2022-12-03T00:49:57.463Z,69.61
2022-12-03T00:52:24.417Z,68.70
2022-12-03T00:54:51.716Z,68.84
2022-12-03T00:57:19.031Z,69.12
2022-12-03T00:59:46.046Z,67.73
2022-12-03T01:02:13.131Z,69.18
2022-12-03T01:04:40.177Z,68.62
2022-12-03T01:07:07.159Z,69.17
2022-12-03T01:09:34.163Z,69.17
2022-12-03T01:12:01.185Z,69.61
2022-12-03T01:14:28.101Z,69.60
2022-12-03T01:16:55.078Z,68.90
2022-12-03T01:19:21.983Z,69.41
2022-12-03T01:21:50.566Z,69.12
2022-12-03T01:24:18.796Z,68.26
2022-12-03T01:26:45.686Z,68.59
2022-12-03T01:29:13.075Z,69.43
2022-12-03T01:31:58.810Z,68.53
2022-12-03T01:34:25.843Z,69.33
2022-12-03T01:36:52.902Z,68.22
2022-12-03T01:39:20.239Z,68.88
2022-12-03T01:41:49.339Z,69.37
2022-12-03T01:44:21.194Z,68.33
2022-12-03T01:46:51.010Z,68.97
2022-12-03T01:49:21.862Z,68.52
2022-12-03T01:51:51.327Z,69.80
2022-12-03T01:54:31.136Z,69.22
2022-12-03T01:56:58.628Z,69.38
2022-12-03T01:59:34.479Z,69.84
2022-12-03T02:02:33.839Z,69.68
2022-12-03T02:05:03.769Z,69.78
2022-12-03T02:07:33.913Z,68.50
2022-12-03T02:10:04.479Z,69.17
2022-12-03T02:12:38.780Z,69.40
2022-12-03T02:15:07.874Z,69.65
2022-12-03T02:17:35.027Z,69.29
2022-12-03T02:20:04.638Z,68.97
2022-12-03T02:22:47.031Z,69.42
2022-12-03T02:25:21.501Z,68.86
2022-12-03T02:27:49.409Z,69.76
2022-12-03T02:30:22.178Z,69.56
2022-12-03T02:32:49.982Z,70.81
2022-12-03T02:35:22.921Z,70.54
2022-12-03T02:37:53.250Z,71.41
2022-12-03T02:40:22.853Z,71.17
2022-12-03T02:42:53.584Z,70.72
2022-12-03T02:45:33.840Z,71.11
2022-12-03T02:48:00.715Z,70.91
2022-12-03T02:50:33.278Z,71.15
2022-12-03T02:53:03.253Z,71.08
2022-12-03T02:55:36.590Z,71.98
2022-12-03T02:58:05.340Z,71.78
2022-12-03T03:00:33.385Z,71.62
2022-12-03T03:03:02.694Z,71.10
2022-12-03T03:05:30.236Z,71.98
2022-12-03T03:07:59.377Z,72.06
2022-12-03T03:10:27.000Z,72.26
2022-12-03T03:12:55.624Z,71.70
2022-12-03T03:15:23.671Z,71.71
2022-12-03T03:17:51.227Z,71.66
2022-12-03T03:20:19.402Z,71.75
2022-12-03T03:22:46.422Z,71.69
2022-12-03T03:25:18.765Z,72.69
2022-12-03T03:27:46.031Z,71.92
2022-12-03T03:30:14.330Z,71.67
2022-12-03T03:32:42.796Z,71.46
2022-12-03T03:35:11.870Z,71.61
2022-12-03T03:37:39.357Z,71.34
2022-12-03T03:40:07.361Z,70.86
2022-12-03T03:42:35.066Z,71.25
2022-12-03T03:45:02.253Z,72.00
2022-12-03T03:47:30.087Z,72.82
2022-12-03T03:49:56.995Z,72.75
2022-12-03T03:52:24.324Z,72.80
2022-12-03T03:54:51.462Z,72.15
2022-12-03T03:57:18.624Z,71.43
2022-12-03T03:59:45.558Z,71.54
2022-12-03T04:02:24.865Z,71.34
2022-12-03T04:04:52.094Z,70.64
2022-12-03T04:07:19.207Z,70.45
2022-12-03T04:09:46.271Z,70.97
2022-12-03T04:12:31.963Z,71.06
2022-12-03T04:14:59.280Z,70.28
2022-12-03T04:17:26.174Z,69.95
2022-12-03T04:19:53.109Z,69.65
2022-12-03T04:22:41.145Z,69.98
2022-12-03T04:25:28.988Z,71.12
2022-12-03T04:28:14.655Z,71.11
2022-12-03T04:30:41.581Z,70.11
2022-12-03T04:33:27.422Z,70.15
2022-12-03T04:35:54.392Z,69.87
2022-12-03T04:38:21.360Z,69.83
2022-12-03T04:41:06.475Z,69.83
2022-12-03T04:43:34.910Z,69.21
2022-12-03T04:46:02.513Z,70.25
2022-12-03T04:48:30.015Z,70.33
2022-12-03T04:50:56.985Z,69.84
2022-12-03T04:53:23.873Z,70.46
2022-12-03T04:55:50.890Z,71.38
2022-12-03T04:58:17.757Z,71.26
2022-12-03T05:00:44.699Z,70.93
2022-12-03T05:03:11.643Z,70.75
2022-12-03T05:05:38.611Z,71.69
2022-12-03T05:08:05.848Z,71.05
2022-12-03T05:10:32.811Z,71.55
2022-12-03T05:12:59.716Z,71.20
2022-12-03T05:15:26.610Z,70.06
2022-12-03T05:17:53.466Z,70.75
2022-12-03T05:20:39.182Z,71.52
2022-12-03T05:23:06.136Z,72.00
2022-12-03T05:25:33.038Z,70.97
2022-12-03T05:27:59.941Z,70.87
2022-12-03T05:30:26.917Z,71.24
2022-12-03T05:32:54.043Z,70.30
2022-12-03T05:35:20.971Z,71.34
2022-12-03T05:37:47.861Z,69.97
2022-12-03T05:40:15.252Z,70.58
2022-12-03T05:42:53.995Z,69.40
2022-12-03T05:45:22.219Z,69.03
2022-12-03T05:47:49.510Z,69.81
2022-12-03T05:50:16.739Z,70.16
2022-12-03T05:52:43.936Z,69.85
2022-12-03T05:55:11.956Z,70.37
2022-12-03T05:57:39.592Z,70.99
2022-12-03T06:00:18.351Z,70.42
2022-12-03T06:02:45.539Z,71.27
2022-12-03T06:05:14.653Z,71.14
2022-12-03T06:07:42.253Z,70.52
2022-12-03T06:10:11.808Z,71.55
2022-12-03T06:12:39.443Z,72.10
2022-12-03T06:15:07.090Z,71.14
2022-12-03T06:17:33.954Z,71.62
2022-12-03T06:20:00.970Z,71.77
2022-12-03T06:22:27.951Z,72.19
2022-12-03T06:24:54.993Z,73.09
2022-12-03T06:27:22.208Z,72.35
2022-12-03T06:29:49.220Z,72.92
2022-12-03T06:32:16.227Z,72.61
2022-12-03T06:34:43.095Z,71.21
2022-12-03T06:37:10.017Z,71.44
2022-12-03T06:39:36.924Z,72.30
2022-12-03T06:42:03.931Z,71.47
2022-12-03T06:44:30.946Z,72.09
2022-12-03T06:46:57.944Z,72.24
2022-12-03T06:49:24.871Z,71.00
2022-12-03T06:51:51.774Z,70.71
2022-12-03T06:54:18.811Z,70.35
2022-12-03T06:56:46.280Z,70.53
2022-12-03T06:59:14.493Z,70.18
2022-12-03T07:01:41.536Z,69.86
2022-12-03T07:04:08.622Z,69.95
2022-12-03T07:06:35.524Z,71.25
2022-12-03T07:09:02.439Z,69.61
2022-12-03T07:11:32.247Z,69.68
2022-12-03T07:14:05.075Z,70.04
2022-12-03T07:16:32.376Z,70.55
2022-12-03T07:18:59.328Z,70.33
2022-12-03T07:21:26.266Z,69.62
2022-12-03T07:23:53.222Z,67.85
2022-12-03T07:26:20.179Z,67.99
2022-12-03T07:28:48.374Z,68.32
2022-12-03T07:31:15.733Z,67.67
2022-12-03T07:33:42.939Z,67.05
2022-12-03T07:36:10.241Z,67.11
2022-12-03T07:38:37.403Z,66.41
2022-12-03T07:41:04.292Z,66.44
2022-12-03T07:43:31.386Z,66.06
2022-12-03T07:45:58.247Z,66.17
2022-12-03T07:48:25.150Z,65.80
2022-12-03T07:50:52.070Z,65.16
2022-12-03T07:53:19.051Z,64.75
2022-12-03T07:55:46.006Z,64.25
2022-12-03T07:58:12.908Z,65.21
2022-12-03T08:00:39.918Z,66.09
2022-12-03T08:03:06.855Z,65.62
2022-12-03T08:05:33.919Z,65.42
2022-12-03T08:08:01.466Z,67.18
2022-12-03T08:10:28.583Z,65.70
2022-12-03T08:12:59.002Z,64.57
2022-12-03T08:15:32.241Z,65.96
2022-12-03T08:18:11.833Z,66.04
2022-12-03T08:20:40.967Z,66.75
2022-12-03T08:23:13.921Z,67.19
2022-12-03T08:25:41.214Z,66.58
2022-12-03T08:28:14.063Z,66.65
2022-12-03T08:30:43.362Z,67.43
2022-12-03T08:33:26.013Z,67.34
2022-12-03T08:35:53.128Z,67.41
2022-12-03T08:38:22.986Z,67.25
2022-12-03T08:40:52.701Z,67.72
2022-12-03T08:43:27.663Z,68.03
2022-12-03T08:45:56.871Z,68.07
2022-12-03T08:48:30.049Z,68.18
2022-12-03T08:51:20.397Z,67.98
2022-12-03T08:53:50.490Z,68.35
2022-12-03T08:56:25.759Z,67.50
2022-12-03T08:59:18.650Z,68.29
2022-12-03T09:01:47.411Z,67.16
2022-12-03T09:04:31.519Z,67.92
2022-12-03T09:06:58.749Z,68.87
2022-12-03T09:09:26.451Z,68.01
2022-12-03T09:11:54.062Z,68.34
2022-12-03T09:14:22.870Z,68.09
2022-12-03T09:16:52.125Z,69.41
2022-12-03T09:19:19.217Z,68.23
2022-12-03T09:21:46.394Z,68.46
2022-12-03T09:24:13.401Z,68.30
2022-12-03T09:26:40.408Z,69.08
2022-12-03T09:29:11.932Z,68.16
2022-12-03T09:31:40.088Z,68.52
2022-12-03T09:34:07.861Z,67.80
2022-12-03T09:36:36.929Z,68.39
2022-12-03T09:39:04.422Z,69.51
2022-12-03T09:41:31.566Z,70.92
2022-12-03T09:44:06.192Z,68.97
2022-12-03T09:46:37.473Z,68.69
2022-12-03T09:49:10.806Z,70.08
2022-12-03T09:51:41.005Z,69.06
2022-12-03T09:54:08.347Z,68.91
2022-12-03T09:56:38.079Z,69.84
2022-12-03T09:59:15.168Z,70.33
2022-12-03T10:01:42.670Z,69.41
2022-12-03T10:04:10.104Z,68.82
2022-12-03T10:06:41.062Z,69.92
2022-12-03T10:09:17.498Z,68.78
2022-12-03T10:11:44.759Z,69.28
2022-12-03T10:14:14.327Z,69.34
2022-12-03T10:16:41.689Z,69.68
2022-12-03T10:19:22.316Z,69.11
2022-12-03T10:21:49.347Z,69.83
2022-12-03T10:24:31.725Z,69.45
2022-12-03T10:27:01.448Z,69.06
2022-12-03T10:29:34.946Z,69.52
2022-12-03T10:32:07.960Z,69.59
2022-12-03T10:34:37.664Z,69.79
2022-12-03T10:37:34.087Z,69.29
2022-12-03T10:40:09.776Z,68.79
2022-12-03T10:42:41.341Z,68.33
2022-12-03T10:45:22.871Z,69.03
2022-12-03T10:48:27.574Z,69.75
2022-12-03T10:51:02.509Z,69.55
2022-12-03T10:53:35.729Z,69.76
2022-12-03T10:56:05.936Z,70.04
2022-12-03T10:58:38.067Z,69.37
2022-12-03T11:01:25.881Z,70.28
2022-12-03T11:03:55.939Z,70.45
2022-12-03T11:06:23.541Z,70.47
2022-12-03T11:08:58.383Z,70.67
2022-12-03T11:11:27.910Z,71.16
2022-12-03T11:13:57.100Z,71.63
2022-12-03T11:16:39.269Z,70.83
2022-12-03T11:19:45.866Z,70.30
2022-12-03T11:22:17.566Z,71.78
2022-12-03T11:24:44.444Z,72.18
2022-12-03T11:27:19.140Z,71.95
2022-12-03T11:29:58.710Z,72.42
2022-12-03T11:32:43.925Z,71.81
2022-12-03T11:35:37.821Z,71.49
2022-12-03T11:38:46.189Z,72.51
2022-12-03T11:41:36.096Z,73.01
2022-12-03T11:44:32.776Z,73.71
2022-12-03T11:47:00.687Z,73.29
2022-12-03T11:49:36.098Z,73.62
2022-12-03T11:52:19.313Z,72.98
2022-12-03T11:54:50.832Z,72.68
2022-12-03T11:57:30.687Z,73.58
2022-12-03T12:00:10.448Z,73.65
2022-12-03T12:02:42.201Z,73.93
2022-12-03T12:05:21.145Z,74.88
2022-12-03T12:07:49.087Z,74.72
2022-12-03T12:10:38.555Z,74.08
2022-12-03T12:13:05.840Z,74.09
2022-12-03T12:15:41.773Z,74.46
2022-12-03T12:18:36.803Z,74.79
2022-12-03T12:21:38.624Z,75.93
2022-12-03T12:24:51.549Z,75.68
2022-12-03T12:27:21.891Z,75.41
2022-12-03T12:29:55.160Z,75.40
2022-12-03T12:32:30.667Z,75.60
2022-12-03T12:35:13.756Z,75.50
2022-12-03T12:38:06.991Z,75.68
2022-12-03T12:40:36.567Z,75.99
2022-12-03T12:43:25.184Z,75.92
2022-12-03T12:46:13.508Z,75.94
2022-12-03T12:48:46.124Z,76.27
2022-12-03T12:51:17.015Z,76.80
2022-12-03T12:53:44.036Z,76.76
2022-12-03T12:56:26.875Z,77.34
2022-12-03T12:58:56.832Z,76.57
2022-12-03T13:01:29.966Z,76.93
2022-12-03T13:03:57.593Z,76.91
2022-12-03T13:06:30.311Z,77.51
2022-12-03T13:09:01.303Z,77.12
2022-12-03T13:11:42.370Z,77.78
2022-12-03T13:14:22.821Z,77.82
2022-12-03T13:16:52.188Z,77.24
2022-12-03T13:19:23.840Z,77.92
2022-12-03T13:21:53.659Z,79.24
2022-12-03T13:24:39.671Z,79.51
2022-12-03T13:27:19.677Z,79.27
2022-12-03T13:29:51.147Z,78.61
2022-12-03T13:32:23.450Z,79.04
2022-12-03T13:34:55.430Z,78.48
2022-12-03T13:37:25.307Z,77.61
2022-12-03T13:39:55.237Z,78.40
2022-12-03T13:42:43.323Z,78.00
2022-12-03T13:45:19.299Z,78.68
2022-12-03T13:47:48.022Z,78.29
2022-12-03T13:50:41.453Z,77.38
2022-12-03T13:53:11.415Z,78.50
2022-12-03T13:55:50.276Z,78.50
2022-12-03T13:58:17.521Z,79.34
2022-12-03T14:00:44.702Z,79.39
2022-12-03T14:03:11.871Z,79.49
2022-12-03T14:05:38.989Z,79.85
2022-12-03T14:08:06.332Z,80.57
2022-12-03T14:10:33.445Z,81.22
2022-12-03T14:13:00.602Z,81.99
2022-12-03T14:15:27.576Z,81.20
2022-12-03T14:17:54.573Z,81.31
2022-12-03T14:20:22.409Z,81.06
2022-12-03T14:23:04.508Z,81.11
2022-12-03T14:25:31.627Z,80.88
2022-12-03T14:27:58.555Z,81.55
2022-12-03T14:30:25.454Z,81.47
2022-12-03T14:32:52.546Z,80.36
2022-12-03T14:35:19.444Z,80.15
2022-12-03T14:37:46.496Z,80.49
2022-12-03T14:40:19.642Z,80.14
2022-12-03T14:42:48.477Z,81.18
2022-12-03T14:45:15.392Z,80.88
2022-12-03T14:47:42.600Z,80.81
2022-12-03T14:50:14.403Z,79.36
2022-12-03T14:52:41.696Z,80.02
2022-12-03T14:55:08.915Z,80.68
2022-12-03T14:57:37.510Z,80.96
2022-12-03T15:00:07.238Z,81.64
2022-12-03T15:02:34.327Z,80.34
2022-12-03T15:05:01.446Z,80.94
2022-12-03T15:07:32.134Z,81.34
2022-12-03T15:09:59.184Z,82.22
2022-12-03T15:12:26.355Z,82.61
2022-12-03T15:14:53.334Z,82.02
2022-12-03T15:17:29.470Z,82.23
2022-12-03T15:19:58.399Z,81.16
2022-12-03T15:22:25.344Z,81.45
2022-12-03T15:24:52.311Z,81.79
2022-12-03T15:27:19.233Z,81.32
2022-12-03T15:29:46.300Z,81.00
2022-12-03T15:32:13.598Z,81.07
2022-12-03T15:34:40.508Z,80.25
2022-12-03T15:37:09.418Z,80.51
2022-12-03T15:39:37.708Z,81.14
2022-12-03T15:42:04.624Z,79.98
2022-12-03T15:44:31.595Z,79.62
2022-12-03T15:46:58.570Z,79.21
2022-12-03T15:49:25.551Z,79.88
2022-12-03T15:51:52.476Z,79.35
2022-12-03T15:54:19.870Z,80.11
2022-12-03T15:56:47.310Z,81.03
2022-12-03T15:59:14.423Z,81.09
2022-12-03T16:01:41.568Z,80.62
2022-12-03T16:04:08.810Z,80.38
2022-12-03T16:06:36.095Z,80.71
2022-12-03T16:09:03.125Z,80.27
2022-12-03T16:11:30.219Z,81.23
2022-12-03T16:13:57.328Z,81.42
2022-12-03T16:16:24.352Z,80.85
2022-12-03T16:18:51.471Z,80.75
2022-12-03T16:21:23.369Z,80.28
2022-12-03T16:23:53.596Z,80.63
2022-12-03T16:26:20.462Z,79.55
2022-12-03T16:28:48.556Z,79.03
2022-12-03T16:31:15.476Z,79.94
2022-12-03T16:33:42.656Z,79.61
2022-12-03T16:36:09.879Z,80.67
2022-12-03T16:38:36.927Z,80.91
2022-12-03T16:41:03.887Z,80.80
2022-12-03T16:43:34.047Z,80.35
2022-12-03T16:46:20.872Z,79.72
2022-12-03T16:48:48.494Z,79.81
2022-12-03T16:51:16.202Z,80.01
2022-12-03T16:53:43.311Z,78.48
2022-12-03T16:56:10.347Z,77.25
2022-12-03T16:58:37.276Z,77.53
2022-12-03T17:01:04.654Z,77.39
2022-12-03T17:03:34.084Z,76.87
2022-12-03T17:06:01.906Z,77.29
2022-12-03T17:08:29.274Z,76.75
2022-12-03T17:10:56.755Z,76.52
2022-12-03T17:13:23.979Z,76.23
2022-12-03T17:15:51.318Z,75.74
2022-12-03T17:18:18.517Z,75.88
2022-12-03T17:20:45.711Z,75.00
2022-12-03T17:23:12.810Z,74.07
2022-12-03T17:25:39.708Z,73.39
2022-12-03T17:28:06.746Z,72.64
2022-12-03T17:30:33.845Z,72.36
2022-12-03T17:33:01.434Z,73.08
2022-12-03T17:35:28.711Z,72.67
2022-12-03T17:37:55.950Z,72.91
2022-12-03T17:40:23.243Z,72.39
2022-12-03T17:42:50.228Z,73.17
2022-12-03T17:45:17.230Z,73.29
2022-12-03T17:47:44.178Z,72.48
2022-12-03T17:50:11.244Z,73.17
2022-12-03T17:52:38.197Z,72.80
2022-12-03T17:55:19.806Z,72.85
2022-12-03T17:57:50.796Z,73.49
2022-12-03T18:00:18.574Z,73.96
2022-12-03T18:02:45.533Z,74.90
2022-12-03T18:05:13.551Z,75.19
2022-12-03T18:07:40.782Z,75.37
2022-12-03T18:10:08.168Z,74.77
2022-12-03T18:12:35.194Z,75.36
2022-12-03T18:15:02.156Z,74.91
2022-12-03T18:17:31.187Z,74.84
2022-12-03T18:19:58.374Z,73.93
2022-12-03T18:22:27.710Z,75.25
2022-12-03T18:24:55.448Z,74.50
2022-12-03T18:27:22.981Z,74.77
2022-12-03T18:29:50.038Z,74.31
2022-12-03T18:32:28.284Z,74.23
2022-12-03T18:34:55.628Z,73.70
2022-12-03T18:37:25.721Z,73.72
2022-12-03T18:39:53.305Z,74.62
2022-12-03T18:42:23.620Z,75.79
2022-12-03T18:44:52.537Z,75.58
2022-12-03T18:47:22.755Z,75.70
2022-12-03T18:49:50.262Z,76.67
2022-12-03T18:52:20.399Z,76.59
2022-12-03T18:54:48.168Z,76.27
2022-12-03T18:57:15.496Z,76.19
2022-12-03T18:59:42.822Z,76.24
2022-12-03T19:05:08.954Z,76.33
2022-12-03T19:07:36.075Z,76.01
2022-12-03T19:10:03.251Z,76.04
2022-12-03T19:12:31.938Z,76.61
2022-12-03T19:14:58.897Z,76.87
2022-12-03T19:17:27.279Z,77.38
2022-12-03T19:19:55.114Z,77.01
2022-12-03T19:22:22.493Z,77.28
2022-12-03T19:24:50.077Z,76.96
2022-12-03T19:27:17.419Z,77.02
2022-12-03T19:29:44.599Z,77.75
2022-12-03T19:32:11.635Z,77.67
2022-12-03T19:34:38.879Z,77.79
2022-12-03T19:37:05.851Z,78.64
2022-12-03T19:39:33.342Z,78.23
2022-12-03T19:42:00.282Z,78.51
2022-12-03T19:44:27.328Z,78.23
2022-12-03T19:46:54.487Z,77.89
2022-12-03T19:49:21.611Z,78.15
2022-12-03T19:51:48.861Z,78.12
2022-12-03T19:54:16.698Z,78.22
2022-12-03T19:56:44.348Z,77.66
2022-12-03T19:59:12.544Z,77.91
2022-12-03T20:01:40.983Z,77.94
2022-12-03T20:04:08.258Z,77.70
2022-12-03T20:06:39.885Z,77.38
2022-12-03T20:09:11.480Z,77.26
2022-12-03T20:11:40.078Z,76.51
2022-12-03T20:14:10.485Z,76.63
2022-12-03T20:16:37.578Z,76.76
2022-12-03T20:19:07.519Z,76.14
2022-12-03T20:21:36.697Z,76.28
2022-12-03T20:24:04.780Z,76.71
2022-12-03T20:26:32.088Z,76.24
2022-12-03T20:28:59.769Z,76.20
2022-12-03T20:31:30.430Z,76.51
2022-12-03T20:34:00.755Z,75.92
2022-12-03T20:36:29.653Z,75.95
2022-12-03T20:38:58.852Z,75.97
2022-12-03T20:41:26.045Z,75.25
2022-12-03T20:43:54.140Z,76.13
2022-12-03T20:46:29.383Z,75.29
2022-12-03T20:48:57.037Z,74.48
2022-12-03T20:51:27.576Z,74.52
2022-12-03T20:53:56.139Z,74.45
2022-12-03T20:56:26.418Z,75.59
2022-12-03T20:58:53.855Z,75.63
2022-12-03T21:01:22.221Z,75.78
2022-12-03T21:03:50.756Z,75.50
2022-12-03T21:06:18.513Z,75.15
2022-12-03T21:08:45.854Z,75.57
2022-12-03T21:11:16.463Z,75.10
2022-12-03T21:13:44.062Z,75.17
2022-12-03T21:16:17.780Z,75.84
2022-12-03T21:18:44.955Z,75.35
2022-12-03T21:21:13.846Z,74.66
2022-12-03T21:23:41.625Z,75.32
2022-12-03T21:26:10.179Z,74.61
2022-12-03T21:28:38.826Z,75.45
2022-12-03T21:31:08.770Z,75.39
2022-12-03T21:33:36.933Z,74.70
2022-12-03T21:36:05.007Z,75.59
2022-12-03T21:38:33.202Z,74.78
2022-12-03T21:41:01.146Z,74.75
2022-12-03T21:43:28.510Z,74.82
2022-12-03T21:45:55.732Z,75.65
2022-12-03T21:48:22.923Z,75.36
2022-12-03T21:51:16.800Z,75.42
2022-12-03T21:53:43.848Z,75.80
2022-12-03T21:56:13.742Z,75.66
2022-12-03T21:58:41.053Z,75.16
2022-12-03T22:01:16.588Z,75.77
2022-12-03T22:03:44.044Z,75.33
2022-12-03T22:06:11.766Z,75.12
2022-12-03T22:08:39.217Z,74.76
2022-12-03T22:11:09.196Z,74.83
2022-12-03T22:13:38.424Z,74.70
2022-12-03T22:16:11.520Z,73.36
2022-12-03T22:18:39.297Z,74.25
2022-12-03T22:21:12.727Z,73.39
2022-12-03T22:23:40.778Z,75.07
2022-12-03T22:26:10.944Z,74.83
2022-12-03T22:28:37.936Z,74.47
2022-12-03T22:31:09.323Z,74.62
2022-12-03T22:33:37.141Z,74.57
2022-12-03T22:36:07.008Z,74.49
2022-12-03T22:38:34.417Z,74.31
2022-12-03T22:41:07.956Z,74.40
2022-12-03T22:43:38.954Z,73.88
2022-12-03T22:46:10.517Z,72.91
2022-12-03T22:48:37.843Z,72.66
2022-12-03T22:51:11.957Z,73.06
2022-12-03T22:53:38.939Z,72.88
2022-12-03T22:56:06.199Z,72.25
2022-12-03T22:58:33.393Z,71.92
2022-12-03T23:01:03.078Z,72.58
2022-12-03T23:03:30.542Z,72.20
2022-12-03T23:05:57.551Z,73.14
2022-12-03T23:08:24.526Z,72.62
2022-12-03T23:10:52.884Z,73.21
2022-12-03T23:13:20.971Z,72.20
2022-12-03T23:15:50.982Z,72.28
2022-12-03T23:18:19.416Z,71.99
2022-12-03T23:20:49.588Z,72.00
2022-12-03T23:23:17.872Z,72.31
2022-12-03T23:25:45.465Z,72.37
2022-12-03T23:28:12.655Z,72.13
2022-12-03T23:30:39.824Z,72.25
2022-12-03T23:33:06.987Z,72.53
2022-12-03T23:35:33.961Z,72.96
2022-12-03T23:38:01.037Z,72.44
2022-12-03T23:40:27.961Z,72.18
2022-12-03T23:42:55.172Z,72.01
2022-12-03T23:45:22.337Z,72.11
2022-12-03T23:47:52.361Z,72.52
2022-12-03T23:50:21.972Z,72.39
2022-12-03T23:52:49.096Z,72.06
2022-12-03T23:55:16.176Z,71.80
2022-12-03T23:57:43.240Z,71.50
